Time;durP1;ratioP1;P1;durP2;ratioP2;P2;SDS_P1;SDS_P2;PMS_P1;PMS_P2;Temp;Humidity;BMP_temperature;BMP_pressure;BME280_temperature;BME280_humidity;BME280_pressure;Samples;Min_cycle;Max_cycle;Signal;HPM_P1;HPM_P2
2022/11/29 00:01:22;;;;;;;53.80;22.45;;;;;;;1.62;90.83;100406.94;4452730;32;33146;-72
2022/11/29 00:03:51;;;;;;;54.10;23.20;;;;;;;1.87;89.47;100400.63;4439098;32;34674;-73
2022/11/29 00:06:26;;;;;;;55.08;23.50;;;;;;;1.91;89.73;100401.94;4454034;32;34030;-73
2022/11/29 00:08:55;;;;;;;59.10;25.88;;;;;;;1.71;90.67;100402.41;4451223;32;33681;-73
2022/11/29 00:14:14;;;;;;;7.97;3.22;;;;;;;2.15;88.47;100388.41;4452768;32;34573;-73
2022/11/29 00:16:42;;;;;;;56.58;22.73;;;;;;;1.71;90.81;100382.84;4455193;32;35071;-73
2022/11/29 00:19:11;;;;;;;55.12;24.70;;;;;;;2.18;89.03;100377.34;4469296;32;33921;-74
2022/11/29 00:21:38;;;;;;;57.67;24.25;;;;;;;2.25;88.86;100375.63;4469388;32;33597;-74
2022/11/29 00:24:06;;;;;;;2.37;2.15;;;;;;;2.24;89.06;100370.44;4446192;32;33980;-74
2022/11/29 00:26:33;;;;;;;57.42;23.40;;;;;;;1.91;91.22;100376.03;4452056;32;33992;-75
2022/11/29 00:29:02;;;;;;;19.30;7.25;;;;;;;2.29;89.15;100373.44;4469119;32;33801;-74
2022/11/29 00:31:31;;;;;;;62.90;24.10;;;;;;;1.96;90.01;100372.81;4469289;32;33140;-73
2022/11/29 00:34:01;;;;;;;56.45;24.58;;;;;;;1.93;89.72;100373.19;4455260;32;34034;-70
2022/11/29 00:36:29;;;;;;;61.88;24.40;;;;;;;2.11;89.25;100365.69;4455142;32;34077;-70
2022/11/29 00:38:57;;;;;;;8.98;6.68;;;;;;;1.93;89.13;100365.97;4468884;32;34042;-70
2022/11/29 00:41:25;;;;;;;62.85;25.17;;;;;;;1.99;89.48;100377.81;4456306;32;33538;-70
2022/11/29 00:43:52;;;;;;;63.35;23.92;;;;;;;2.12;88.97;100367.34;4438177;32;33928;-73
2022/11/29 00:46:20;;;;;;;62.30;25.73;;;;;;;1.85;90.47;100368.69;4437880;32;34277;-73
2022/11/29 00:48:47;;;;;;;59.63;23.60;;;;;;;2.07;89.62;100375.06;4440887;32;33931;-72
2022/11/29 00:51:15;;;;;;;62.10;25.95;;;;;;;2.05;89.05;100364.56;4453562;32;33649;-73
2022/11/29 00:53:42;;;;;;;56.63;23.45;;;;;;;2.57;87.14;100368.34;4454262;32;34711;-72
2022/11/29 00:56:10;;;;;;;61.58;24.27;;;;;;;2.23;87.25;100363.44;4469472;32;34090;-72
2022/11/29 00:58:37;;;;;;;54.90;23.85;;;;;;;1.71;91.13;100361.44;4450587;32;33934;-73
2022/11/29 01:01:05;;;;;;;61.28;23.62;;;;;;;1.70;91.63;100363.25;4453458;32;33335;-73
2022/11/29 01:03:32;;;;;;;18.95;8.88;;;;;;;1.97;90.57;100364.62;4452651;32;33845;-73
2022/11/29 01:06:03;;;;;;;52.28;22.37;;;;;;;1.93;90.58;100357.12;4453623;32;34986;-74
2022/11/29 01:08:30;;;;;;;60.25;23.05;;;;;;;2.11;90.72;100357.66;4437964;32;33635;-74
2022/11/29 01:11:06;;;;;;;60.65;25.70;;;;;;;2.05;88.90;100351.19;4439429;32;34449;-74
2022/11/29 01:13:34;;;;;;;61.92;24.52;;;;;;;1.94;91.10;100358.78;4439632;32;34768;-74
2022/11/29 01:16:02;;;;;;;62.80;24.37;;;;;;;2.12;89.87;100358.50;4434829;32;34147;-73
2022/11/29 01:18:30;;;;;;;58.15;23.60;;;;;;;2.22;89.70;100357.22;4436532;32;33572;-73
2022/11/29 01:21:00;;;;;;;57.67;23.33;;;;;;;2.38;89.11;100363.47;4437905;32;34116;-73
2022/11/29 01:23:28;;;;;;;61.67;24.77;;;;;;;1.89;89.82;100350.47;4438028;32;33910;-72
2022/11/29 01:26:19;;;;;;;56.25;22.90;;;;;;;2.34;88.36;100357.62;4438166;32;34209;-72
2022/11/29 01:28:49;;;;;;;62.80;24.33;;;;;;;2.12;88.93;100358.50;4433279;32;34169;-74
2022/11/29 01:31:21;;;;;;;62.13;23.98;;;;;;;1.96;92.13;100352.22;4443859;32;34533;-73
2022/11/29 01:33:52;;;;;;;9.82;4.68;;;;;;;2.40;89.31;100354.25;4434109;32;33935;-74
2022/11/29 01:36:20;;;;;;;11.77;5.28;;;;;;;2.21;89.60;100355.56;4424005;32;34249;-73
2022/11/29 01:38:47;;;;;;;64.20;24.87;;;;;;;2.13;88.58;100349.44;4443204;32;34485;-74
2022/11/29 01:41:19;;;;;;;59.03;23.45;;;;;;;2.36;88.11;100350.25;4453188;32;34344;-73
2022/11/29 01:44:02;;;;;;;55.65;23.17;;;;;;;2.14;89.68;100346.59;4439345;32;34020;-74
2022/11/29 01:46:43;;;;;;;50.12;22.02;;;;;;;1.92;90.90;100347.41;4453357;32;33868;-73
2022/11/29 01:49:36;;;;;;;55.90;22.87;;;;;;;1.91;90.67;100346.59;4439014;32;34552;-75
2022/11/29 01:52:32;;;;;;;62.22;24.83;;;;;;;1.55;91.72;100340.94;4440716;32;33205;-74
2022/11/29 01:55:03;;;;;;;17.23;7.22;;;;;;;1.94;91.09;100337.38;4453338;32;33941;-74
2022/11/29 01:57:32;;;;;;;51.58;21.10;;;;;;;1.95;91.77;100344.41;4439367;32;35091;-72
2022/11/29 02:00:07;;;;;;;59.88;22.30;;;;;;;2.09;89.34;100348.97;4439076;32;34918;-73
2022/11/29 02:02:55;;;;;;;53.35;22.50;;;;;;;2.18;89.63;100342.56;4453220;32;34529;-74
2022/11/29 02:05:23;;;;;;;62.40;22.00;;;;;;;2.28;88.55;100344.97;4438977;32;34913;-73
2022/11/29 02:07:53;;;;;;;54.33;21.55;;;;;;;2.31;88.85;100343.78;4428112;32;34069;-73
2022/11/29 02:10:24;;;;;;;57.58;21.90;;;;;;;1.99;89.56;100343.88;4423783;32;33891;-74
2022/11/29 02:13:09;;;;;;;55.50;21.05;;;;;;;1.80;90.90;100344.31;4423520;32;33269;-73
2022/11/29 02:16:16;;;;;;;57.35;21.25;;;;;;;1.69;91.99;100348.25;4421943;32;36815;-71
2022/11/29 02:18:58;;;;;;;55.17;22.33;;;;;;;1.73;91.68;100346.03;4436956;32;34113;-72
2022/11/29 02:21:41;;;;;;;17.92;7.43;;;;;;;1.47;93.42;100355.22;4429586;32;34881;-74
2022/11/29 02:24:43;;;;;;;62.62;23.60;;;;;;;1.61;93.41;100356.31;4439235;32;34650;-73
2022/11/29 02:27:23;;;;;;;58.95;21.20;;;;;;;1.37;94.20;100351.91;4437610;32;33608;-71
2022/11/29 02:30:19;;;;;;;55.88;21.90;;;;;;;1.51;93.05;100353.00;4449920;32;35078;-73
2022/11/29 02:33:05;;;;;;;55.78;22.08;;;;;;;1.60;92.48;100354.66;4438776;32;34637;-73
2022/11/29 02:35:47;;;;;;;2.50;1.30;;;;;;;1.68;91.60;100361.78;4451859;32;33546;-73
2022/11/29 02:38:20;;;;;;;51.75;21.25;;;;;;;1.48;92.97;100366.72;4452284;32;34086;-73
2022/11/29 02:40:51;;;;;;;50.72;20.10;;;;;;;1.47;93.02;100363.22;4446606;32;35120;-73
2022/11/29 02:43:36;;;;;;;53.67;20.75;;;;;;;1.19;94.73;100368.19;4437241;32;34516;-74
2022/11/29 02:46:16;;;;;;;56.30;20.30;;;;;;;1.33;94.84;100367.44;4437429;32;33317;-72
2022/11/29 02:48:52;;;;;;;55.40;21.35;;;;;;;1.79;90.79;100364.91;4422540;32;33814;-72
2022/11/29 02:51:38;;;;;;;3.67;2.22;;;;;;;1.84;91.07;100367.03;4431211;32;34266;-74
2022/11/29 02:54:07;;;;;;;;;;;;;;;1.89;89.88;100369.19;4438697;32;33919;-72
2022/11/29 02:56:52;;;;;;;48.75;20.60;;;;;;;1.77;90.02;100368.75;4438722;32;33494;-73
2022/11/29 02:59:35;;;;;;;50.28;21.87;;;;;;;1.68;90.97;100359.94;4430275;32;34885;-73
2022/11/29 03:02:28;;;;;;;1.50;1.40;;;;;;;1.80;90.50;100357.69;4452399;32;35065;-74
2022/11/29 03:05:33;;;;;;;55.33;21.50;;;;;;;1.78;90.83;100365.06;4452324;32;34548;-76
2022/11/29 03:08:28;;;;;;;56.55;22.52;;;;;;;1.98;88.91;100354.72;4452072;32;34144;-76
2022/11/29 03:11:08;;;;;;;3.60;2.33;;;;;;;2.20;88.14;100353.91;4438425;32;34720;-75
2022/11/29 03:13:57;;;;;;;50.00;21.40;;;;;;;1.39;92.67;100353.41;4452582;32;34929;-75
2022/11/29 03:16:33;;;;;;;51.28;20.65;;;;;;;1.28;93.11;100360.97;4447379;32;34899;-75
2022/11/29 03:19:27;;;;;;;55.38;21.73;;;;;;;1.27;93.41;100365.47;4444563;32;33811;-74
2022/11/29 03:22:11;;;;;;;48.65;20.83;;;;;;;1.54;91.55;100364.19;4452247;32;33830;-74
2022/11/29 03:24:57;;;;;;;50.20;21.08;;;;;;;1.66;91.34;100369.97;4450386;32;34909;-73
2022/11/29 03:27:30;;;;;;;52.50;20.70;;;;;;;2.08;88.98;100373.25;4453300;32;33888;-73
2022/11/29 03:30:03;;;;;;;52.08;21.58;;;;;;;2.05;87.75;100367.25;4452891;32;33565;-74
2022/11/29 03:32:53;;;;;;;49.08;20.58;;;;;;;1.87;89.48;100365.84;4455783;32;33740;-75
2022/11/29 03:35:40;;;;;;;2.25;1.12;;;;;;;2.05;88.55;100364.56;4455690;32;33758;-74
2022/11/29 03:38:19;;;;;;;57.80;21.65;;;;;;;1.69;90.01;100366.97;4469437;32;34024;-73
2022/11/29 03:40:54;;;;;;;51.28;22.17;;;;;;;1.55;91.62;100367.69;4469926;32;34068;-75
2022/11/29 03:43:26;;;;;;;50.35;22.02;;;;;;;1.40;90.99;100373.78;4450138;32;32845;-74
2022/11/29 03:46:01;;;;;;;42.88;21.02;;;;;;;1.42;92.52;100373.59;4440375;32;35003;-74
2022/11/29 03:48:47;;;;;;;27.02;12.63;;;;;;;1.61;90.57;100367.81;4459838;32;33671;-72
2022/11/29 03:51:19;;;;;;;50.15;20.40;;;;;;;1.38;91.43;100375.81;4451282;32;34210;-74
2022/11/29 03:54:03;;;;;;;46.80;20.30;;;;;;;1.16;92.54;100384.56;4427315;32;33869;-74
2022/11/29 03:56:36;;;;;;;2.05;1.30;;;;;;;1.68;90.53;100386.69;4427376;32;34144;-74
2022/11/29 03:59:38;;;;;;;43.42;19.50;;;;;;;2.04;88.58;100389.66;4439194;32;33772;-73
2022/11/29 04:02:08;;;;;;;46.03;20.42;;;;;;;1.66;89.24;100382.50;4454092;32;34344;-74
2022/11/29 04:05:24;;;;;;;13.00;6.68;;;;;;;1.46;89.98;100387.47;4465527;32;33948;-74
2022/11/29 04:08:00;;;;;;;43.75;19.12;;;;;;;1.41;90.40;100388.81;4425160;32;34099;-75
2022/11/29 04:11:10;;;;;;;43.97;20.08;;;;;;;1.50;90.20;100394.97;4440008;32;34188;-72
2022/11/29 04:14:19;;;;;;;39.70;18.45;;;;;;;1.57;88.86;100385.22;4419975;32;33739;-74
2022/11/29 04:17:21;;;;;;;5.75;5.35;;;;;;;1.70;88.39;100390.00;4426992;32;33755;-75
2022/11/29 04:20:26;;;;;;;2.10;1.62;;;;;;;1.31;89.56;100390.03;4449208;32;34240;-75
2022/11/29 04:23:13;;;;;;;45.65;20.60;;;;;;;1.74;88.43;100387.84;4407506;32;33883;-75
2022/11/29 04:26:22;;;;;;;40.83;18.25;;;;;;;1.70;88.00;100390.00;4437995;32;33713;-74
2022/11/29 04:28:53;;;;;;;38.45;18.50;;;;;;;1.30;88.92;100394.53;4434070;32;34099;-74
2022/11/29 04:31:32;;;;;;;5.57;2.10;;;;;;;2.12;86.84;100395.97;4438468;32;34181;-75
2022/11/29 04:34:11;;;;;;;1.77;1.58;;;;;;;1.88;87.08;100391.59;4443518;32;34865;-72
2022/11/29 04:37:06;;;;;;;37.97;19.00;;;;;;;1.71;87.86;100389.03;4438513;32;33363;-75
2022/11/29 04:39:43;;;;;;;45.03;20.40;;;;;;;2.01;87.07;100389.19;4436389;32;33812;-75
2022/11/29 04:42:13;;;;;;;41.92;20.65;;;;;;;1.81;87.84;100392.31;4439103;32;34150;-74
2022/11/29 04:45:02;;;;;;;42.28;20.37;;;;;;;1.78;88.02;100392.66;4454667;32;34012;-75
2022/11/29 04:48:25;;;;;;;42.90;21.20;;;;;;;1.58;88.54;100391.44;4453482;32;34373;-74
2022/11/29 04:51:15;;;;;;;43.78;21.17;;;;;;;1.30;91.07;100402.56;4373786;32;35308;-74
2022/11/29 04:54:05;;;;;;;43.97;21.30;;;;;;;1.25;90.88;100402.22;4375188;32;35044;-72
2022/11/29 04:57:00;;;;;;;44.28;21.05;;;;;;;1.54;89.24;100411.50;4443826;32;34542;-72
2022/11/29 04:59:47;;;;;;;28.12;12.85;;;;;;;1.63;89.23;100421.16;4437834;32;33435;-74
2022/11/29 05:02:36;;;;;;;45.65;21.12;;;;;;;1.17;91.48;100418.31;4438138;32;33908;-73
2022/11/29 05:05:29;;;;;;;43.87;21.48;;;;;;;1.41;90.53;100422.75;4437858;32;34237;-72
2022/11/29 05:08:35;;;;;;;10.20;5.00;;;;;;;1.74;89.27;100426.09;4436523;32;34828;-75
2022/11/29 05:11:15;;;;;;;49.72;23.08;;;;;;;1.67;88.88;100427.81;4438498;32;33690;-74
2022/11/29 05:14:21;;;;;;;43.78;20.67;;;;;;;1.53;90.45;100425.88;4451126;32;34786;-73
2022/11/29 05:17:25;;;;;;;50.95;21.90;;;;;;;1.41;89.59;100423.56;4424387;32;34935;-74
2022/11/29 05:20:12;;;;;;;45.00;20.10;;;;;;;1.58;89.11;100420.84;4452296;32;33988;-78
2022/11/29 05:22:57;;;;;;;46.03;22.15;;;;;;;1.74;89.03;100430.63;4436704;32;33540;-82
2022/11/29 05:25:48;;;;;;;44.65;23.02;;;;;;;1.54;90.19;100428.38;4435231;32;34655;-73
2022/11/29 05:28:25;;;;;;;44.53;20.95;;;;;;;1.30;90.01;100431.16;4437579;32;35059;-74
2022/11/29 05:31:07;;;;;;;1.95;1.00;;;;;;;1.21;91.48;100433.84;4434505;32;33928;-75
2022/11/29 05:34:12;;;;;;;46.83;19.73;;;;;;;1.46;90.30;100435.59;4445410;32;33083;-73
2022/11/29 05:36:52;;;;;;;51.60;21.97;;;;;;;1.24;91.10;100438.00;4449427;32;33684;-76
2022/11/29 05:39:52;;;;;;;9.00;4.40;;;;;;;1.22;91.49;100432.00;4448429;32;35022;-74
2022/11/29 05:42:41;;;;;;;48.87;22.17;;;;;;;1.62;90.15;100441.72;4437994;32;34572;-74
2022/11/29 05:45:24;;;;;;;43.08;19.65;;;;;;;1.57;89.70;100435.22;4450954;32;33457;-73
2022/11/29 05:48:02;;;;;;;3.75;2.10;;;;;;;1.20;91.77;100437.50;4437843;32;33592;-75
2022/11/29 05:50:32;;;;;;;41.60;19.15;;;;;;;1.35;91.47;100442.97;4452621;32;33969;-74
2022/11/29 05:53:24;;;;;;;12.80;6.43;;;;;;;1.27;91.31;100436.81;4439489;32;33672;-74
2022/11/29 05:56:28;;;;;;;42.75;20.98;;;;;;;1.22;90.56;100442.69;4438103;32;33212;-74
2022/11/29 05:59:02;;;;;;;45.33;20.90;;;;;;;1.19;91.43;100446.53;4437000;32;33788;-75
2022/11/29 06:01:51;;;;;;;46.75;21.17;;;;;;;1.33;90.76;100442.31;4423458;32;34063;-73
2022/11/29 06:04:27;;;;;;;41.13;18.55;;;;;;;1.33;91.29;100455.69;4436626;32;34081;-75
2022/11/29 06:07:13;;;;;;;44.03;19.98;;;;;;;0.98;91.78;100447.06;4436029;32;33652;-73
2022/11/29 06:09:47;;;;;;;39.40;19.30;;;;;;;1.07;91.66;100445.22;4438076;32;34137;-76
2022/11/29 06:12:18;;;;;;;2.40;1.30;;;;;;;1.17;91.39;100455.72;4437859;32;34158;-75
2022/11/29 06:15:26;;;;;;;41.90;20.17;;;;;;;1.32;90.23;100453.16;4428860;32;91134;-75
2022/11/29 06:17:59;;;;;;;14.30;7.53;;;;;;;0.59;94.55;100452.28;4463514;32;33704;-75
2022/11/29 06:20:42;;;;;;;41.30;18.15;;;;;;;0.59;94.70;100458.44;4468000;32;33797;-74
2022/11/29 06:23:10;;;;;;;41.92;20.58;;;;;;;0.98;93.21;100464.94;4468110;32;34268;-74
2022/11/29 06:26:07;;;;;;;22.98;11.20;;;;;;;1.06;90.91;100472.94;4467759;32;33983;-74
2022/11/29 06:28:53;;;;;;;41.85;19.02;;;;;;;1.16;89.68;100473.59;4437959;32;33427;-75
2022/11/29 06:31:28;;;;;;;41.08;21.23;;;;;;;1.33;89.16;100470.87;4452114;32;33880;-78
2022/11/29 06:34:28;;;;;;;41.05;20.67;;;;;;;1.32;89.37;100466.53;4438139;32;34565;-74
2022/11/29 06:37:13;;;;;;;39.53;19.45;;;;;;;1.64;88.27;100476.28;4438096;32;33685;-75
2022/11/29 06:39:40;;;;;;;41.22;19.73;;;;;;;1.23;88.98;100465.72;4435677;32;34269;-74
2022/11/29 06:42:08;;;;;;;41.03;20.73;;;;;;;1.09;90.45;100477.94;4438269;32;33947;-75
2022/11/29 06:44:36;;;;;;;42.72;21.17;;;;;;;1.05;90.68;100479.28;4452422;32;34086;-72
2022/11/29 06:47:12;;;;;;;46.42;22.00;;;;;;;1.39;89.77;100486.25;4450421;32;33341;-71
2022/11/29 06:49:51;;;;;;;42.60;21.48;;;;;;;0.99;90.92;100482.62;4453757;32;33288;-73
2022/11/29 06:52:31;;;;;;;33.33;17.35;;;;;;;1.44;89.93;100479.38;4453976;32;33985;-73
2022/11/29 06:55:13;;;;;;;44.85;20.90;;;;;;;1.64;88.31;100479.84;4467780;32;34297;-75
2022/11/29 06:57:46;;;;;;;50.97;22.50;;;;;;;1.41;89.28;100486.91;4467445;32;34071;-74
2022/11/29 07:00:35;;;;;;;44.60;20.95;;;;;;;1.90;86.84;100489.44;4467352;32;34352;-75
2022/11/29 07:03:37;;;;;;;1.20;1.10;;;;;;;2.10;86.09;100489.00;4451936;32;33980;-74
2022/11/29 07:06:20;;;;;;;50.70;24.58;;;;;;;1.55;88.65;100486.19;4460664;32;35055;-75
2022/11/29 07:08:52;;;;;;;46.00;24.12;;;;;;;1.29;90.12;100494.44;4469048;32;33676;-75
2022/11/29 07:11:21;;;;;;;1.95;1.60;;;;;;;1.43;89.99;100484.91;4455522;32;34020;-75
2022/11/29 07:13:48;;;;;;;40.47;20.77;;;;;;;1.39;91.83;100489.75;4468855;32;33954;-74
2022/11/29 07:16:23;;;;;;;47.22;22.58;;;;;;;1.62;89.75;100489.00;4470263;32;34310;-74
2022/11/29 07:19:19;;;;;;;49.80;22.90;;;;;;;1.71;89.12;100490.66;4442784;32;34491;-73
2022/11/29 07:21:57;;;;;;;45.53;23.60;;;;;;;2.06;86.50;100491.19;4452508;32;33491;-76
2022/11/29 07:24:37;;;;;;;44.72;22.75;;;;;;;1.39;89.15;100487.09;4452706;32;34674;-74
2022/11/29 07:27:11;;;;;;;45.75;23.23;;;;;;;1.61;88.88;100482.84;4468761;32;34001;-75
2022/11/29 07:29:47;;;;;;;54.88;28.15;;;;;;;1.63;88.52;100483.50;4455673;32;34061;-75
2022/11/29 07:32:22;;;;;;;58.33;31.10;;;;;;;1.92;88.12;100491.91;4469744;32;33706;-75
2022/11/29 07:35:15;;;;;;;48.55;22.77;;;;;;;1.74;88.00;100489.47;4447952;32;34001;-70
2022/11/29 07:38:03;;;;;;;48.53;23.40;;;;;;;1.87;88.25;100494.28;4465201;32;35047;-79
2022/11/29 07:40:40;;;;;;;46.08;23.33;;;;;;;1.66;89.07;100492.19;4455387;32;34597;-75
2022/11/29 07:43:20;;;;;;;48.87;24.35;;;;;;;1.89;88.21;100501.13;4453068;32;34811;-77
2022/11/29 07:45:48;;;;;;;11.80;6.22;;;;;;;2.11;86.90;100499.50;4452472;32;33866;-76
2022/11/29 07:48:16;;;;;;;48.90;25.17;;;;;;;1.82;87.66;100494.81;4447388;32;34250;-74
2022/11/29 07:50:44;;;;;;;47.95;23.08;;;;;;;1.94;87.22;100501.44;4453961;32;34816;-72
2022/11/29 07:53:16;;;;;;;45.42;23.60;;;;;;;1.71;89.22;100505.91;4453053;32;33592;-72
2022/11/29 07:55:44;;;;;;;45.83;23.83;;;;;;;1.73;89.06;100501.19;4432692;32;33726;-72
2022/11/29 07:58:13;;;;;;;11.05;7.00;;;;;;;1.82;88.49;100509.03;4455084;32;35084;-73
2022/11/29 08:00:41;;;;;;;49.88;24.20;;;;;;;1.38;90.65;100498.78;4449202;32;34047;-71
2022/11/29 08:03:09;;;;;;;46.58;23.95;;;;;;;1.19;92.32;100508.00;4454685;32;33597;-72
2022/11/29 08:05:37;;;;;;;49.15;24.33;;;;;;;1.60;89.62;100499.06;4468778;32;34746;-72
2022/11/29 08:08:05;;;;;;;51.28;23.35;;;;;;;1.80;88.18;100499.50;4454339;32;34289;-71
2022/11/29 08:10:34;;;;;;;51.63;25.95;;;;;;;1.68;88.52;100498.19;4466678;32;33836;-74
2022/11/29 08:13:01;;;;;;;46.67;23.87;;;;;;;2.07;87.00;100503.53;4427062;32;32842;-79
2022/11/29 08:15:29;;;;;;;48.17;24.55;;;;;;;2.17;86.43;100512.22;4452653;32;34849;-78
2022/11/29 08:17:56;;;;;;;10.98;5.97;;;;;;;2.03;85.94;100500.41;4452810;32;33883;-80
2022/11/29 08:20:24;;;;;;;50.47;24.17;;;;;;;2.30;85.04;100500.09;4453081;32;33901;-77
2022/11/29 08:22:56;;;;;;;50.85;25.17;;;;;;;2.10;86.60;100500.53;4453238;32;33114;-74
2022/11/29 08:25:26;;;;;;;52.92;27.35;;;;;;;1.82;87.71;100503.66;4439109;32;33943;-75
2022/11/29 08:27:54;;;;;;;51.03;26.87;;;;;;;1.81;88.58;100490.44;4442614;32;34669;-68
2022/11/29 08:30:22;;;;;;;53.28;26.20;;;;;;;1.89;87.69;100497.63;4462068;32;33928;-69
2022/11/29 08:32:50;;;;;;;44.28;23.17;;;;;;;2.38;85.18;100492.84;4468528;32;33472;-69
2022/11/29 08:35:19;;;;;;;45.12;22.83;;;;;;;2.29;85.58;100490.38;4454643;32;33879;-69
2022/11/29 08:37:46;;;;;;;47.58;23.08;;;;;;;1.64;87.50;100497.69;4446340;32;35045;-69
2022/11/29 08:40:15;;;;;;;20.98;9.43;;;;;;;1.39;89.63;100489.75;4441377;32;34799;-69
2022/11/29 08:42:42;;;;;;;48.83;25.40;;;;;;;1.36;90.47;100499.94;4466368;32;33536;-69
2022/11/29 08:45:10;;;;;;;51.13;26.10;;;;;;;2.08;87.64;100501.72;4468212;32;33806;-69
2022/11/29 08:47:39;;;;;;;51.33;27.33;;;;;;;1.83;88.58;100494.63;4450324;32;33976;-69
2022/11/29 08:50:14;;;;;;;49.65;24.75;;;;;;;2.20;86.36;100503.84;4437165;32;32835;-69
2022/11/29 08:55:33;;;;;;;51.13;24.23;;;;;;;1.81;88.12;100502.00;4441250;32;34484;-69
2022/11/29 08:58:03;;;;;;;10.95;6.70;;;;;;;2.35;85.94;100493.19;4450664;32;33746;-70
2022/11/29 09:00:31;;;;;;;52.50;25.48;;;;;;;2.00;86.60;100494.56;4459698;32;34353;-72
2022/11/29 09:03:58;;;;;;;47.10;23.98;;;;;;;2.28;84.81;100502.94;4452858;32;33663;-68
2022/11/29 09:05:48;;;;;;;45.72;22.58;;;;;;;1.63;87.27;100496.03;4468347;32;33683;-69
2022/11/29 09:08:15;;;;;;;42.08;23.65;;;;;;;1.97;86.59;100497.59;4453569;32;34273;-71
2022/11/29 09:10:43;;;;;;;39.45;21.92;;;;;;;2.25;84.90;100496.09;4468285;32;33989;-71
2022/11/29 09:13:11;;;;;;;45.95;23.92;;;;;;;2.50;82.91;100498.63;4468200;32;33125;-71
2022/11/29 09:15:40;;;;;;;44.42;23.17;;;;;;;2.01;85.74;100497.06;4468214;32;33933;-69
2022/11/29 09:18:08;;;;;;;45.67;24.70;;;;;;;2.36;83.75;100488.69;4454072;32;34128;-69
2022/11/29 09:20:36;;;;;;;44.20;23.80;;;;;;;1.74;87.49;100493.00;4454447;32;34693;-68
2022/11/29 09:23:03;;;;;;;9.23;5.07;;;;;;;1.75;87.27;100494.69;4468475;32;33572;-75
2022/11/29 09:25:31;;;;;;;47.45;25.67;;;;;;;1.67;87.14;100492.03;4468313;32;34737;-75
2022/11/29 09:28:01;;;;;;;49.03;25.15;;;;;;;2.18;85.09;100488.94;4451808;32;34356;-72
2022/11/29 09:30:30;;;;;;;46.75;24.87;;;;;;;2.30;84.22;100486.72;4468812;32;34169;-73
2022/11/29 09:33:03;;;;;;;42.58;23.00;;;;;;;1.82;85.77;100489.47;4468426;32;32979;-75
2022/11/29 09:35:32;;;;;;;42.08;22.50;;;;;;;2.00;84.32;100486.53;4455048;32;33775;-77
2022/11/29 09:38:00;;;;;;;43.58;23.40;;;;;;;2.08;85.87;100493.69;4453911;32;33615;-73
2022/11/29 09:40:48;;;;;;;43.50;24.23;;;;;;;2.19;83.62;100483.41;4455007;32;34692;-85
2022/11/29 09:43:34;;;;;;;42.90;21.92;;;;;;;2.15;84.11;100491.97;4452293;32;33309;-71
2022/11/29 09:46:14;;;;;;;45.10;24.40;;;;;;;2.02;84.63;100489.88;4452873;32;33953;-72
2022/11/29 09:48:58;;;;;;;46.83;26.05;;;;;;;2.22;84.00;100482.22;4438185;32;34408;-69
2022/11/29 09:51:48;;;;;;;44.58;23.95;;;;;;;2.28;83.09;100486.06;4438979;32;33896;-70
2022/11/29 09:54:38;;;;;;;46.65;24.92;;;;;;;2.66;81.90;100478.94;4455754;32;33577;-73
2022/11/29 09:57:05;;;;;;;42.90;22.73;;;;;;;2.94;80.92;100473.84;4467167;32;33754;-70
2022/11/29 09:59:42;;;;;;;44.35;23.50;;;;;;;2.74;82.19;100473.50;4452481;32;33212;-71
2022/11/29 10:02:24;;;;;;;40.92;22.92;;;;;;;2.55;81.87;100474.84;4453124;32;34669;-72
2022/11/29 10:04:55;;;;;;;44.22;25.30;;;;;;;2.48;82.14;100473.84;4468355;32;33321;-79
2022/11/29 10:07:29;;;;;;;48.55;27.33;;;;;;;2.30;83.03;100467.97;4453820;32;34364;-85
2022/11/29 10:10:11;;;;;;;47.00;23.45;;;;;;;2.44;82.52;100461.81;4454082;32;34000;-81
2022/11/29 10:12:47;;;;;;;46.17;23.50;;;;;;;2.21;83.65;100459.97;4462603;32;36617;-82
2022/11/29 10:15:23;;;;;;;46.28;24.85;;;;;;;2.39;82.49;100462.38;4439869;32;31466;-71
2022/11/29 10:17:58;;;;;;;47.30;24.08;;;;;;;2.25;83.16;100458.63;4452417;32;34069;-69
2022/11/29 10:20:29;;;;;;;43.00;24.42;;;;;;;2.40;82.69;100449.84;4451773;32;34825;-72
2022/11/29 10:23:02;;;;;;;44.90;23.02;;;;;;;2.10;83.83;100457.72;4438901;32;34111;-71
2022/11/29 10:25:34;;;;;;;48.75;26.20;;;;;;;2.04;84.30;100448.53;4438979;32;33791;-72
2022/11/29 10:28:03;;;;;;;45.05;24.50;;;;;;;2.07;85.33;100443.84;4436909;32;34795;-75
2022/11/29 10:30:32;;;;;;;20.25;10.52;;;;;;;2.14;83.40;100451.00;4460293;32;34227;-81
2022/11/29 10:33:01;;;;;;;45.15;22.90;;;;;;;2.05;84.42;100455.56;4468209;32;34463;-81
2022/11/29 10:35:34;;;;;;;51.03;24.70;;;;;;;2.09;83.58;100450.69;4462837;32;34356;-80
2022/11/29 10:38:03;;;;;;;46.53;24.55;;;;;;;2.12;83.88;100447.66;4426423;32;33870;-78
2022/11/29 10:40:57;;;;;;;46.72;24.23;;;;;;;2.02;85.43;100449.72;4452413;32;34794;-74
2022/11/29 10:43:25;;;;;;;7.75;4.62;;;;;;;2.37;83.42;100440.28;4452124;32;33698;-78
2022/11/29 10:45:54;;;;;;;48.00;23.48;;;;;;;1.93;85.64;100434.72;4453937;32;34293;-78
2022/11/29 10:48:30;;;;;;;45.20;23.23;;;;;;;2.15;83.75;100449.16;4440342;32;34777;-82
2022/11/29 10:51:00;;;;;;;46.65;22.92;;;;;;;2.73;81.71;100447.72;4454206;32;34133;-81
2022/11/29 10:53:31;;;;;;;42.67;22.17;;;;;;;2.29;82.19;100443.03;4452690;32;34456;-74
2022/11/29 10:56:00;;;;;;;43.60;22.27;;;;;;;1.99;83.23;100448.22;4440685;32;34364;-71
2022/11/29 10:58:30;;;;;;;43.35;22.87;;;;;;;2.63;81.79;100450.63;4467146;32;33646;-76
2022/11/29 11:01:07;;;;;;;42.42;23.77;;;;;;;2.53;82.16;100439.34;4453793;32;35076;-78
2022/11/29 11:04:06;;;;;;;44.35;24.27;;;;;;;2.57;81.07;100453.19;4453913;32;33661;-82
2022/11/29 11:06:48;;;;;;;58.45;30.67;;;;;;;2.37;82.52;100442.12;4441320;32;33466;-81
2022/11/29 11:09:37;;;;;;;47.88;24.90;;;;;;;2.31;82.61;100440.16;4451523;32;33827;-80
2022/11/29 11:12:15;;;;;;;41.03;23.25;;;;;;;2.23;83.31;100436.53;4466749;32;34400;-74
2022/11/29 11:14:43;;;;;;;43.28;22.25;;;;;;;2.45;81.34;100437.56;4453505;32;34144;-75
2022/11/29 11:17:17;;;;;;;40.35;22.50;;;;;;;2.24;81.47;100438.19;4465329;32;33757;-68
2022/11/29 11:19:55;;;;;;;44.58;22.70;;;;;;;2.82;79.44;100437.75;4453099;32;33665;-68
2022/11/29 11:22:23;;;;;;;44.03;23.25;;;;;;;2.86;78.44;100439.91;4448422;32;34907;-70
2022/11/29 11:25:04;;;;;;;43.47;23.08;;;;;;;3.11;77.80;100437.00;4436692;32;33916;-67
2022/11/29 11:27:38;;;;;;;40.63;21.60;;;;;;;2.73;79.72;100439.69;4451882;32;33006;-79
2022/11/29 11:30:07;;;;;;;;;;;;;;;2.92;78.99;100438.34;4453508;32;34513;-68
2022/11/29 11:32:34;;;;;;;41.37;21.35;;;;;;;2.55;80.61;100434.66;4453100;32;34432;-69
2022/11/29 11:35:01;;;;;;;41.33;21.23;;;;;;;2.78;79.81;100437.28;4452288;32;33926;-68
2022/11/29 11:37:31;;;;;;;47.33;23.75;;;;;;;2.98;79.02;100444.81;4462446;32;33468;-71
2022/11/29 11:40:16;;;;;;;46.13;23.67;;;;;;;2.56;80.64;100440.84;4448529;32;34367;-70
2022/11/29 11:42:45;;;;;;;44.45;23.12;;;;;;;2.00;83.54;100449.06;4450891;32;34146;-75
2022/11/29 11:45:12;;;;;;;46.33;22.83;;;;;;;2.17;83.68;100449.81;4451191;32;34670;-71
2022/11/29 11:47:48;;;;;;;42.95;24.23;;;;;;;2.66;81.35;100446.78;4451068;32;33191;-72
2022/11/29 11:50:57;;;;;;;42.42;22.37;;;;;;;2.71;81.21;100440.87;4439814;32;34678;-74
2022/11/29 11:53:28;;;;;;;43.97;23.60;;;;;;;3.12;79.00;100437.81;4453547;32;33956;-72
2022/11/29 11:56:04;;;;;;;40.65;21.58;;;;;;;3.00;78.92;100450.81;4452686;32;33691;-70
2022/11/29 11:58:46;;;;;;;40.75;21.25;;;;;;;2.53;81.47;100450.06;4427866;32;34286;-71
2022/11/29 12:01:24;;;;;;;39.67;21.67;;;;;;;2.86;79.41;100445.25;4454563;32;33889;-71
2022/11/29 12:03:57;;;;;;;23.00;12.93;;;;;;;3.11;79.37;100447.72;4441966;32;33360;-69
2022/11/29 12:06:28;;;;;;;36.17;20.35;;;;;;;2.91;79.03;100436.66;4454056;32;34085;-73
2022/11/29 12:09:07;;;;;;;41.17;22.08;;;;;;;3.08;79.20;100448.06;4454205;32;33915;-70
2022/11/29 12:12:03;;;;;;;42.22;22.83;;;;;;;3.39;78.17;100447.06;4468447;32;33901;-70
2022/11/29 12:14:52;;;;;;;37.42;20.37;;;;;;;2.96;79.64;100436.97;4468718;32;35029;-69